createdAt,value
2019-04-26T00:01:44.409Z,24.53
2019-04-26T00:04:14.109Z,20.50
2019-04-26T00:06:42.354Z,28.37
2019-04-26T00:09:19.827Z,24.03
2019-04-26T00:11:49.682Z,22.90
2019-04-26T00:14:36.082Z,26.97
2019-04-26T00:17:15.452Z,25.93
2019-04-26T00:19:44.119Z,25.17
2019-04-26T00:22:13.421Z,24.37
2019-04-26T00:24:42.029Z,27.63
2019-04-26T00:27:11.260Z,33.00
2019-04-26T00:29:40.017Z,25.63
2019-04-26T00:32:08.226Z,21.37
2019-04-26T00:34:36.757Z,29.33
2019-04-26T00:37:05.047Z,28.70
2019-04-26T00:39:33.263Z,26.20
2019-04-26T00:42:02.049Z,25.77
2019-04-26T00:44:30.365Z,20.37
2019-04-26T00:46:58.574Z,19.37
2019-04-26T00:49:27.344Z,20.90
2019-04-26T00:51:56.169Z,21.67
2019-04-26T00:54:25.162Z,21.20
2019-04-26T00:56:54.136Z,22.43
2019-04-26T00:59:22.628Z,25.33
2019-04-26T01:01:53.597Z,23.37
2019-04-26T01:04:23.019Z,25.90
2019-04-26T01:06:53.027Z,30.50
2019-04-26T01:09:21.585Z,33.73
2019-04-26T01:11:50.472Z,30.03
2019-04-26T01:14:18.637Z,22.57
2019-04-26T01:16:47.083Z,29.70
2019-04-26T01:19:17.063Z,26.37
2019-04-26T01:21:47.496Z,26.67
2019-04-26T01:24:16.729Z,27.33
2019-04-26T01:26:45.790Z,20.47
2019-04-26T01:29:14.430Z,18.10
2019-04-26T01:31:47.938Z,20.57
2019-04-26T01:34:16.424Z,20.40
2019-04-26T01:36:44.643Z,28.40
2019-04-26T01:39:19.683Z,31.07
2019-04-26T01:41:51.011Z,20.77
2019-04-26T01:44:24.608Z,27.90
2019-04-26T01:46:53.000Z,23.93
2019-04-26T01:49:22.362Z,24.20
2019-04-26T01:51:52.560Z,27.60
2019-04-26T01:54:23.007Z,24.30
2019-04-26T01:56:51.957Z,22.23
2019-04-26T01:59:20.974Z,27.60
2019-04-26T02:01:54.699Z,23.33
2019-04-26T02:04:26.193Z,22.53
2019-04-26T02:06:54.399Z,20.63
2019-04-26T02:09:24.262Z,26.00
2019-04-26T02:11:52.688Z,25.27
2019-04-26T02:14:21.029Z,26.13
2019-04-26T02:16:49.404Z,21.37
2019-04-26T02:19:17.730Z,23.23
2019-04-26T02:21:59.798Z,27.47
2019-04-26T02:24:30.113Z,23.17
2019-04-26T02:26:59.105Z,31.73
2019-04-26T02:29:28.489Z,27.97
2019-04-26T02:31:57.716Z,30.70
2019-04-26T02:34:27.981Z,30.30
2019-04-26T02:36:58.785Z,26.60
2019-04-26T02:39:29.709Z,24.53
2019-04-26T02:41:59.844Z,29.87
2019-04-26T02:44:31.289Z,20.80
2019-04-26T02:47:03.204Z,21.70
2019-04-26T02:49:35.047Z,26.00
2019-04-26T02:52:07.056Z,23.63
2019-04-26T02:54:45.754Z,24.30
2019-04-26T02:57:18.520Z,23.57
2019-04-26T02:59:46.854Z,23.57
2019-04-26T03:02:23.045Z,20.80
2019-04-26T03:04:52.083Z,20.63
2019-04-26T03:07:22.808Z,29.33
2019-04-26T03:09:51.182Z,26.23
2019-04-26T03:12:19.362Z,28.90
2019-04-26T03:14:53.425Z,22.17
2019-04-26T03:17:26.641Z,32.63
2019-04-26T03:20:04.038Z,29.90
2019-04-26T03:22:50.521Z,27.47
2019-04-26T03:25:22.472Z,29.33
2019-04-26T03:28:11.673Z,26.20
2019-04-26T03:31:00.113Z,19.70
2019-04-26T03:33:46.628Z,19.00
2019-04-26T03:36:13.785Z,29.23
2019-04-26T03:38:51.197Z,32.03
2019-04-26T03:41:28.594Z,22.63
2019-04-26T03:44:04.380Z,31.27
2019-04-26T03:46:35.648Z,33.37
2019-04-26T03:49:05.851Z,31.87
2019-04-26T03:51:37.194Z,28.07
2019-04-26T03:54:09.792Z,32.17
2019-04-26T03:56:42.228Z,29.60
2019-04-26T03:59:17.515Z,27.10
2019-04-26T04:01:54.561Z,37.40
2019-04-26T04:04:25.419Z,31.70
2019-04-26T04:07:03.839Z,31.03
2019-04-26T04:09:24.521Z,33.80
2019-04-26T04:12:10.994Z,28.87
2019-04-26T04:14:37.732Z,33.23
2019-04-26T04:17:17.354Z,35.77
2019-04-26T04:20:03.933Z,27.17
2019-04-26T04:22:33.716Z,27.47
2019-04-26T04:25:04.140Z,26.90
2019-04-26T04:27:34.306Z,32.83
2019-04-26T04:30:05.356Z,40.00
2019-04-26T04:32:52.124Z,37.63
2019-04-26T04:35:21.465Z,35.80
2019-04-26T04:38:04.226Z,43.80
2019-04-26T04:40:47.122Z,45.20
2019-04-26T04:43:18.985Z,42.53
2019-04-26T04:45:53.266Z,45.00
2019-04-26T04:48:30.228Z,39.33
2019-04-26T04:51:06.482Z,42.97
2019-04-26T04:53:51.894Z,38.47
2019-04-26T04:56:36.870Z,45.70
2019-04-26T04:59:11.309Z,41.47
2019-04-26T05:01:52.457Z,46.67
2019-04-26T05:04:24.100Z,42.27
2019-04-26T05:07:04.879Z,38.77
2019-04-26T05:09:34.943Z,39.90
2019-04-26T05:12:06.139Z,43.23
2019-04-26T05:14:48.555Z,30.57
2019-04-26T05:17:18.373Z,38.83
2019-04-26T05:19:48.599Z,24.80
2019-04-26T05:22:35.215Z,23.43
2019-04-26T05:25:15.496Z,23.33
2019-04-26T05:28:06.861Z,20.93
2019-04-26T05:31:11.676Z,21.53
2019-04-26T05:33:41.505Z,23.00
2019-04-26T05:36:28.084Z,20.67
2019-04-26T05:38:58.615Z,22.87
2019-04-26T05:41:36.263Z,20.90
2019-04-26T05:44:10.851Z,21.67
2019-04-26T05:46:47.519Z,22.23
2019-04-26T05:49:30.683Z,21.13
2019-04-26T05:52:21.855Z,25.07
2019-04-26T05:55:11.368Z,20.70
2019-04-26T05:57:42.832Z,17.43
2019-04-26T06:00:29.587Z,21.93
2019-04-26T06:03:35.680Z,19.63
2019-04-26T06:06:22.446Z,25.00
2019-04-26T06:09:13.570Z,20.60
2019-04-26T06:11:48.173Z,23.17
2019-04-26T06:14:43.532Z,32.30
2019-04-26T06:17:17.981Z,30.90
2019-04-26T06:19:55.283Z,28.17
2019-04-26T06:22:31.241Z,35.17
2019-04-26T06:25:05.580Z,33.83
2019-04-26T06:27:40.222Z,26.10
2019-04-26T06:30:10.028Z,29.13
2019-04-26T06:33:00.934Z,22.50
2019-04-26T06:35:22.490Z,20.77
2019-04-26T06:37:59.838Z,16.27
2019-04-26T06:40:41.814Z,22.23
2019-04-26T06:43:08.443Z,13.73
2019-04-26T06:46:14.613Z,13.00
2019-04-26T06:48:46.340Z,12.93
2019-04-26T06:51:24.111Z,10.67
2019-04-26T06:53:47.792Z,9.80
2019-04-26T06:56:35.188Z,14.17
2019-04-26T06:59:35.521Z,16.03
2019-04-26T07:02:07.006Z,7.97
2019-04-26T07:04:53.814Z,13.63
2019-04-26T07:07:40.099Z,12.07
2019-04-26T07:10:27.153Z,11.30
2019-04-26T07:13:21.438Z,9.78
2019-04-26T07:16:21.879Z,13.67
2019-04-26T07:18:39.156Z,11.23
2019-04-26T07:21:24.020Z,8.50
2019-04-26T07:23:55.869Z,9.35
2019-04-26T07:26:42.403Z,11.12
2019-04-26T07:29:17.100Z,7.47
2019-04-26T07:31:49.648Z,10.53
2019-04-26T07:34:43.910Z,14.90
2019-04-26T07:37:29.030Z,9.60
2019-04-26T07:40:13.387Z,13.28
2019-04-26T07:43:13.456Z,7.25
2019-04-26T07:45:50.939Z,15.05
2019-04-26T07:48:37.958Z,12.37
2019-04-26T07:51:11.595Z,12.88
2019-04-26T07:53:41.816Z,15.32
2019-04-26T07:56:23.770Z,14.28
2019-04-26T07:58:53.552Z,13.78
2019-04-26T08:01:51.513Z,13.20
2019-04-26T08:04:22.960Z,12.68
2019-04-26T08:06:55.649Z,14.33
2019-04-26T08:09:27.314Z,10.75
2019-04-26T08:11:57.895Z,9.98
2019-04-26T08:14:35.247Z,11.88
2019-04-26T08:17:08.211Z,10.90
2019-04-26T08:19:38.119Z,13.15
2019-04-26T08:22:18.289Z,13.20
2019-04-26T08:24:36.623Z,12.50
2019-04-26T08:27:18.736Z,9.15
2019-04-26T08:29:40.251Z,9.43
2019-04-26T08:32:11.361Z,9.90
2019-04-26T08:34:40.017Z,11.15
2019-04-26T08:37:10.490Z,8.83
2019-04-26T08:39:45.549Z,10.08
2019-04-26T08:42:18.149Z,10.65
2019-04-26T08:44:43.584Z,7.45
2019-04-26T08:47:18.850Z,10.58
2019-04-26T08:49:45.388Z,10.05
2019-04-26T08:52:14.961Z,11.12
2019-04-26T08:54:45.192Z,7.25
2019-04-26T08:57:13.668Z,11.78
2019-04-26T08:59:45.355Z,5.47
2019-04-26T09:02:25.960Z,10.93
2019-04-26T09:04:56.896Z,10.90
2019-04-26T09:07:28.053Z,7.85
2019-04-26T09:09:57.655Z,13.58
2019-04-26T09:12:28.103Z,8.45
2019-04-26T09:14:57.922Z,8.70
2019-04-26T09:17:27.742Z,8.68
2019-04-26T09:19:58.257Z,9.55
2019-04-26T09:22:34.020Z,9.50
2019-04-26T09:25:16.041Z,12.35
2019-04-26T09:27:46.020Z,8.70
2019-04-26T09:30:33.613Z,7.20
2019-04-26T09:32:58.290Z,11.57
2019-04-26T09:35:27.021Z,10.55
2019-04-26T09:37:55.476Z,10.95
2019-04-26T09:40:23.862Z,8.80
2019-04-26T09:42:56.868Z,8.05
2019-04-26T09:45:29.650Z,15.95
2019-04-26T09:48:15.960Z,11.78
2019-04-26T09:50:45.840Z,10.80
2019-04-26T09:53:14.616Z,15.70
2019-04-26T09:55:43.096Z,13.13
2019-04-26T09:58:11.504Z,15.80
2019-04-26T10:00:39.957Z,10.32
2019-04-26T10:03:10.660Z,9.90
2019-04-26T10:05:39.533Z,13.88
2019-04-26T10:08:08.457Z,12.45
2019-04-26T10:10:38.168Z,15.95
2019-04-26T10:13:20.455Z,13.85
2019-04-26T10:15:50.792Z,15.93
2019-04-26T10:18:24.317Z,15.30
2019-04-26T10:20:51.995Z,18.82
2019-04-26T10:23:20.379Z,19.15
2019-04-26T10:25:52.055Z,19.95
2019-04-26T10:28:19.076Z,14.70
2019-04-26T10:30:47.694Z,15.45
2019-04-26T10:33:16.312Z,18.05
2019-04-26T10:35:44.849Z,19.25
2019-04-26T10:38:13.305Z,19.85
2019-04-26T10:40:41.507Z,14.80
2019-04-26T10:43:11.499Z,23.02
2019-04-26T10:45:39.708Z,19.25
2019-04-26T10:48:09.545Z,18.48
2019-04-26T10:50:37.904Z,18.30
2019-04-26T10:53:16.776Z,19.25
2019-04-26T10:55:55.588Z,16.90
2019-04-26T10:58:25.640Z,27.22
2019-04-26T11:00:55.627Z,23.40
2019-04-26T11:03:24.378Z,20.23
2019-04-26T11:05:53.663Z,16.87
2019-04-26T11:08:22.624Z,24.52
2019-04-26T11:10:50.943Z,20.15
2019-04-26T11:13:19.152Z,24.10
2019-04-26T11:15:47.369Z,23.27
2019-04-26T11:18:19.338Z,33.78
2019-04-26T11:20:46.628Z,16.85
2019-04-26T11:23:16.131Z,27.20
2019-04-26T11:25:44.864Z,21.55
2019-04-26T11:28:13.072Z,18.80
2019-04-26T11:30:41.280Z,24.25
2019-04-26T11:33:11.138Z,23.10
2019-04-26T11:35:39.688Z,18.48
2019-04-26T11:38:07.885Z,24.67
2019-04-26T11:40:36.498Z,19.42
2019-04-26T11:43:05.087Z,20.57
2019-04-26T11:45:33.662Z,25.88
2019-04-26T11:48:03.345Z,21.57
2019-04-26T11:50:31.840Z,15.83
2019-04-26T11:53:00.261Z,20.50
2019-04-26T11:55:29.761Z,21.75
2019-04-26T11:57:58.706Z,22.32
2019-04-26T12:00:29.167Z,22.73
2019-04-26T12:02:57.484Z,23.20
2019-04-26T12:05:36.692Z,18.87
2019-04-26T12:08:06.583Z,27.82
2019-04-26T12:10:34.809Z,18.67
2019-04-26T12:13:05.771Z,25.88
2019-04-26T12:15:33.180Z,20.60
2019-04-26T12:18:01.685Z,20.35
2019-04-26T12:20:29.865Z,27.67
2019-04-26T12:22:58.472Z,25.15
2019-04-26T12:25:27.568Z,24.27
2019-04-26T12:27:56.566Z,18.37
2019-04-26T12:30:26.905Z,17.85
2019-04-26T12:32:56.485Z,25.80
2019-04-26T12:35:24.839Z,23.92
2019-04-26T12:37:54.766Z,29.07
2019-04-26T12:40:23.077Z,23.65
2019-04-26T12:42:51.596Z,23.35
2019-04-26T12:45:30.815Z,24.37
2019-04-26T12:48:00.663Z,24.45
2019-04-26T12:50:29.554Z,22.00
2019-04-26T12:52:59.455Z,27.52
2019-04-26T12:55:28.145Z,28.75
2019-04-26T12:57:56.360Z,25.85
2019-04-26T13:00:26.637Z,29.30
2019-04-26T13:02:55.805Z,23.95
2019-04-26T13:05:24.600Z,31.27
2019-04-26T13:07:54.399Z,25.72
2019-04-26T13:10:24.554Z,26.55
2019-04-26T13:12:57.641Z,20.05
2019-04-26T13:15:29.124Z,33.02
2019-04-26T13:17:57.637Z,23.10
2019-04-26T13:20:28.718Z,24.27
2019-04-26T13:22:56.190Z,32.93
2019-04-26T13:25:26.609Z,27.10
2019-04-26T13:27:55.365Z,39.60
2019-04-26T13:30:32.777Z,29.07
2019-04-26T13:32:54.817Z,28.50
2019-04-26T13:35:23.683Z,30.70
2019-04-26T13:37:51.896Z,33.45
2019-04-26T13:40:20.172Z,31.37
2019-04-26T13:42:51.446Z,35.65
2019-04-26T13:45:35.904Z,36.38
2019-04-26T13:48:14.864Z,35.25
2019-04-26T13:50:44.725Z,37.15
2019-04-26T13:53:13.171Z,36.88
2019-04-26T13:55:41.637Z,49.88
2019-04-26T13:58:09.866Z,31.52
2019-04-26T14:00:39.756Z,36.33
2019-04-26T14:03:08.375Z,28.52
2019-04-26T14:05:36.680Z,42.75
2019-04-26T14:08:05.144Z,32.83
2019-04-26T14:10:33.401Z,42.40
2019-04-26T14:13:01.602Z,32.70
2019-04-26T14:15:29.967Z,32.45
2019-04-26T14:18:00.227Z,30.70
2019-04-26T14:20:29.060Z,36.88
2019-04-26T14:23:02.287Z,32.20
2019-04-26T14:25:48.514Z,34.33
2019-04-26T14:28:20.302Z,34.35
2019-04-26T14:30:49.346Z,39.92
2019-04-26T14:33:17.677Z,38.00
2019-04-26T14:35:46.387Z,36.08
2019-04-26T14:38:27.251Z,25.68
2019-04-26T14:40:45.842Z,33.85
2019-04-26T14:43:18.242Z,31.62
2019-04-26T14:45:55.375Z,32.48
2019-04-26T14:48:20.963Z,30.05
2019-04-26T14:50:45.932Z,33.67
2019-04-26T14:53:14.149Z,31.12
2019-04-26T14:55:42.452Z,30.95
2019-04-26T14:58:12.250Z,30.62
2019-04-26T15:00:43.856Z,43.68
2019-04-26T15:03:17.278Z,29.75
2019-04-26T15:05:51.519Z,42.05
2019-04-26T15:08:20.203Z,36.33
2019-04-26T15:10:52.843Z,34.88
2019-04-26T15:13:20.875Z,27.48
2019-04-26T15:15:49.536Z,28.15
2019-04-26T15:18:17.754Z,35.30
2019-04-26T15:20:46.162Z,37.28
2019-04-26T15:23:14.974Z,29.55
2019-04-26T15:25:48.449Z,25.30
2019-04-26T15:28:14.554Z,30.77
2019-04-26T15:30:46.735Z,43.42
2019-04-26T15:33:15.949Z,37.00
2019-04-26T15:35:45.414Z,36.63
2019-04-26T15:38:13.722Z,39.00
2019-04-26T15:40:58.850Z,32.95
2019-04-26T15:43:34.397Z,39.13
2019-04-26T15:46:12.463Z,39.50
2019-04-26T15:48:59.757Z,38.20
2019-04-26T15:51:29.900Z,34.23
2019-04-26T15:53:58.368Z,29.87
2019-04-26T15:56:27.053Z,36.15
2019-04-26T15:58:56.083Z,38.98
2019-04-26T16:01:25.151Z,31.90
2019-04-26T16:03:55.376Z,32.73
2019-04-26T16:06:23.744Z,32.85
2019-04-26T16:08:52.214Z,32.03
2019-04-26T16:11:20.891Z,34.88
2019-04-26T16:13:54.236Z,29.15
2019-04-26T16:16:27.941Z,30.80
2019-04-26T16:18:57.321Z,31.40
2019-04-26T16:21:26.481Z,21.35
2019-04-26T16:23:55.491Z,26.35
2019-04-26T16:26:24.445Z,27.40
2019-04-26T16:29:03.404Z,30.27
2019-04-26T16:31:34.553Z,32.23
2019-04-26T16:34:10.781Z,30.52
2019-04-26T16:36:43.837Z,32.20
2019-04-26T16:39:10.673Z,38.53
2019-04-26T16:41:39.087Z,34.30
2019-04-26T16:44:07.412Z,33.90
2019-04-26T16:46:35.716Z,35.65
2019-04-26T16:49:06.279Z,37.38
2019-04-26T16:51:34.493Z,31.65
2019-04-26T16:54:07.557Z,35.92
2019-04-26T16:56:35.857Z,28.95
2019-04-26T16:59:03.288Z,40.30
2019-04-26T17:01:32.784Z,37.30
2019-04-26T17:04:04.078Z,33.38
2019-04-26T17:06:31.417Z,42.00
2019-04-26T17:09:04.514Z,44.53
2019-04-26T17:11:30.213Z,46.58
2019-04-26T17:14:04.878Z,42.40
2019-04-26T17:16:34.731Z,43.05
2019-04-26T17:19:00.803Z,34.75
2019-04-26T17:21:34.602Z,42.00
2019-04-26T17:24:13.168Z,43.70
2019-04-26T17:26:43.122Z,37.58
2019-04-26T17:29:13.171Z,36.93
2019-04-26T17:31:43.123Z,34.13
2019-04-26T17:34:12.661Z,40.65
2019-04-26T17:36:41.330Z,45.15
2019-04-26T17:39:16.897Z,44.98
2019-04-26T17:41:43.252Z,42.03
2019-04-26T17:44:13.391Z,52.88
2019-04-26T17:46:41.872Z,51.53
2019-04-26T17:49:11.093Z,48.70
2019-04-26T17:51:43.617Z,37.73
2019-04-26T17:54:26.481Z,39.40
2019-04-26T17:56:41.989Z,34.43
2019-04-26T17:59:13.777Z,70.25
2019-04-26T18:01:47.070Z,50.98
2019-04-26T18:04:11.327Z,50.50
2019-04-26T18:06:40.392Z,44.13
2019-04-26T18:09:08.933Z,43.98
2019-04-26T18:11:37.512Z,46.98
2019-04-26T18:14:08.178Z,74.25
2019-04-26T18:16:38.200Z,58.50
2019-04-26T18:19:08.406Z,58.42
2019-04-26T18:21:56.103Z,57.25
2019-04-26T18:24:20.311Z,67.17
2019-04-26T18:26:52.231Z,63.53
2019-04-26T18:29:18.601Z,62.53
2019-04-26T18:31:46.921Z,52.17
2019-04-26T18:34:15.156Z,62.67
2019-04-26T18:36:44.674Z,62.27
2019-04-26T18:39:13.158Z,68.43
2019-04-26T18:41:41.940Z,57.87
2019-04-26T18:44:10.309Z,64.37
2019-04-26T18:46:53.498Z,57.40
2019-04-26T18:49:26.928Z,58.07
2019-04-26T18:51:55.853Z,64.87
2019-04-26T18:54:25.753Z,63.40
2019-04-26T18:56:56.084Z,70.47
2019-04-26T18:59:27.630Z,61.97
2019-04-26T19:01:56.412Z,59.73
2019-04-26T19:04:25.078Z,54.13
2019-04-26T19:06:53.721Z,54.43
2019-04-26T19:09:25.083Z,59.90
2019-04-26T19:11:55.989Z,48.33
2019-04-26T19:14:25.274Z,48.80
2019-04-26T19:17:02.021Z,57.67
2019-04-26T19:19:38.405Z,49.73
2019-04-26T19:22:09.388Z,54.53
2019-04-26T19:24:38.721Z,56.80
2019-04-26T19:27:07.393Z,41.37
2019-04-26T19:29:36.302Z,47.03
2019-04-26T19:32:05.001Z,42.27
2019-04-26T19:34:34.193Z,42.83
2019-04-26T19:37:03.371Z,49.63
2019-04-26T19:39:35.659Z,49.40
2019-04-26T19:42:06.136Z,56.87
2019-04-26T19:44:34.613Z,62.17
2019-04-26T19:47:13.485Z,71.20
2019-04-26T19:50:03.066Z,59.20
2019-04-26T19:52:45.052Z,59.10
2019-04-26T19:55:32.523Z,60.47
2019-04-26T19:58:02.808Z,62.80
2019-04-26T20:00:32.205Z,58.50
2019-04-26T20:03:01.933Z,57.70
2019-04-26T20:05:31.907Z,49.50
2019-04-26T20:08:02.919Z,55.37
2019-04-26T20:10:34.599Z,48.23
2019-04-26T20:13:02.424Z,57.67
2019-04-26T20:15:31.879Z,52.90
2019-04-26T20:18:03.677Z,51.83
2019-04-26T20:20:34.454Z,48.33
2019-04-26T20:23:05.919Z,48.37
2019-04-26T20:25:31.255Z,59.70
2019-04-26T20:28:00.862Z,84.23
2019-04-26T20:30:51.386Z,56.03
2019-04-26T20:33:19.838Z,81.43
2019-04-26T20:35:48.536Z,57.77
2019-04-26T20:38:17.206Z,64.37
2019-04-26T20:40:47.471Z,61.00
2019-04-26T20:43:24.454Z,61.27
2019-04-26T20:46:07.932Z,60.93
2019-04-26T20:48:17.579Z,56.13
2019-04-26T20:50:46.434Z,57.60
2019-04-26T20:53:15.356Z,52.33
2019-04-26T20:55:43.962Z,50.00
2019-04-26T20:58:12.184Z,50.83
2019-04-26T21:00:53.492Z,52.20
2019-04-26T21:03:22.785Z,55.33
2019-04-26T21:05:46.155Z,50.47
2019-04-26T21:08:12.413Z,46.67
2019-04-26T21:10:41.794Z,55.90
2019-04-26T21:13:12.074Z,56.97
2019-04-26T21:15:53.399Z,37.17
2019-04-26T21:18:12.313Z,43.40
2019-04-26T21:20:42.514Z,36.70
2019-04-26T21:23:13.281Z,35.73
2019-04-26T21:25:58.421Z,35.37
2019-04-26T21:28:45.241Z,32.60
2019-04-26T21:31:15.631Z,33.30
2019-04-26T21:33:48.858Z,40.83
2019-04-26T21:36:22.895Z,42.17
2019-04-26T21:38:59.359Z,41.47
2019-04-26T21:41:33.833Z,41.93
2019-04-26T21:44:03.110Z,41.87
2019-04-26T21:46:33.524Z,39.00
2019-04-26T21:49:03.517Z,37.37
2019-04-26T21:51:33.978Z,45.00
2019-04-26T21:54:03.851Z,39.13
2019-04-26T21:56:33.750Z,41.30
2019-04-26T21:59:03.679Z,42.17
2019-04-26T22:01:33.138Z,39.10
2019-04-26T22:04:03.012Z,47.70
2019-04-26T22:06:33.310Z,131.20
2019-04-26T22:09:05.042Z,61.90
2019-04-26T22:11:33.152Z,81.90
2019-04-26T22:14:06.062Z,62.77
2019-04-26T22:16:53.035Z,63.30
2019-04-26T22:19:27.909Z,45.07
2019-04-26T22:22:04.232Z,44.97
2019-04-26T22:24:40.775Z,40.83
2019-04-26T22:27:09.000Z,46.57
2019-04-26T22:29:37.306Z,45.13
2019-04-26T22:32:05.802Z,51.17
2019-04-26T22:34:37.330Z,43.50
2019-04-26T22:37:11.140Z,42.57
2019-04-26T22:39:39.895Z,47.50
2019-04-26T22:42:04.898Z,48.73
2019-04-26T22:44:46.802Z,48.80
2019-04-26T22:47:19.473Z,48.10
2019-04-26T22:49:47.726Z,43.10
2019-04-26T22:52:16.587Z,45.73
2019-04-26T22:54:46.669Z,40.13
2019-04-26T22:57:16.481Z,42.97
2019-04-26T22:59:49.783Z,75.20
2019-04-26T23:02:18.496Z,68.03
2019-04-26T23:04:47.640Z,58.97
2019-04-26T23:07:18.279Z,59.37
2019-04-26T23:09:51.990Z,50.90
2019-04-26T23:12:27.695Z,44.00
2019-04-26T23:15:03.233Z,47.47
2019-04-26T23:17:43.942Z,49.07
2019-04-26T23:20:20.307Z,35.67
2019-04-26T23:22:48.942Z,38.20
2019-04-26T23:25:17.324Z,39.50
2019-04-26T23:27:45.646Z,42.50
2019-04-26T23:30:15.140Z,45.10
2019-04-26T23:32:43.589Z,50.77
2019-04-26T23:35:13.716Z,40.10
2019-04-26T23:37:42.288Z,42.13
2019-04-26T23:40:10.497Z,50.97
2019-04-26T23:42:39.707Z,42.57
2019-04-26T23:45:10.771Z,41.20
2019-04-26T23:47:38.970Z,41.90
2019-04-26T23:50:07.809Z,44.67
2019-04-26T23:52:36.123Z,44.73
2019-04-26T23:55:07.807Z,42.53
2019-04-26T23:57:36.386Z,41.17
